sensor_id;sensor_type;location;lat;lon;timestamp;pressure;altitude;pressure_sealevel;temperature;humidity
48015;BME280;33780;51.034;7.120;2023-09-18T00:00:23;99873.66;;;21.25;75.25
48015;BME280;33780;51.034;7.120;2023-09-18T00:02:48;99872.84;;;21.24;75.32
48015;BME280;33780;51.034;7.120;2023-09-18T00:05:14;99866.75;;;21.22;75.32
48015;BME280;33780;51.034;7.120;2023-09-18T00:07:41;99867.59;;;21.23;75.46
48015;BME280;33780;51.034;7.120;2023-09-18T00:10:09;99865.09;;;21.21;75.32
48015;BME280;33780;51.034;7.120;2023-09-18T00:12:34;99859.03;;;21.19;75.38
48015;BME280;33780;51.034;7.120;2023-09-18T00:14:59;99851.91;;;21.18;75.54
48015;BME280;33780;51.034;7.120;2023-09-18T00:17:25;99850.22;;;21.17;75.36
48015;BME280;33780;51.034;7.120;2023-09-18T00:19:50;99852.94;;;21.17;75.30
48015;BME280;33780;51.034;7.120;2023-09-18T00:22:16;99850.22;;;21.17;75.50
48015;BME280;33780;51.034;7.120;2023-09-18T00:24:42;99841.47;;;21.15;75.38
48015;BME280;33780;51.034;7.120;2023-09-18T00:27:07;99839.78;;;21.14;75.18
48015;BME280;33780;51.034;7.120;2023-09-18T00:29:32;99824.75;;;21.11;75.32
48015;BME280;33780;51.034;7.120;2023-09-18T00:31:58;99824.75;;;21.11;75.60
48015;BME280;33780;51.034;7.120;2023-09-18T00:34:23;99825.19;;;21.08;75.88
48015;BME280;33780;51.034;7.120;2023-09-18T00:36:48;99816.44;;;21.06;75.74
48015;BME280;33780;51.034;7.120;2023-09-18T00:39:13;99819.16;;;21.06;75.71
48015;BME280;33780;51.034;7.120;2023-09-18T00:41:40;99816.44;;;21.06;75.51
48015;BME280;33780;51.034;7.120;2023-09-18T00:44:06;99810.16;;;21.06;75.45
48015;BME280;33780;51.034;7.120;2023-09-18T00:46:31;99800.09;;;21.06;75.87
48015;BME280;33780;51.034;7.120;2023-09-18T00:48:57;99807.66;;;21.04;75.42
48015;BME280;33780;51.034;7.120;2023-09-18T00:51:23;99802.81;;;21.06;75.79
48015;BME280;33780;51.034;7.120;2023-09-18T00:53:48;99794.66;;;21.06;75.59
48015;BME280;33780;51.034;7.120;2023-09-18T00:56:15;99804.72;;;21.06;75.72
48015;BME280;33780;51.034;7.120;2023-09-18T00:58:41;99791.56;;;21.03;75.43
48015;BME280;33780;51.034;7.120;2023-09-18T01:01:07;99794.50;;;21.01;75.54
48015;BME280;33780;51.034;7.120;2023-09-18T01:03:33;99785.72;;;20.99;75.74
48015;BME280;33780;51.034;7.120;2023-09-18T01:05:59;99785.72;;;20.99;75.48
48015;BME280;33780;51.034;7.120;2023-09-18T01:08:24;99786.75;;;20.98;75.73
48015;BME280;33780;51.034;7.120;2023-09-18T01:11:01;99787.81;;;20.97;75.88
48015;BME280;33780;51.034;7.120;2023-09-18T01:13:51;99788.03;;;20.96;75.80
48015;BME280;33780;51.034;7.120;2023-09-18T01:16:24;99796.22;;;20.96;75.78
48015;BME280;33780;51.034;7.120;2023-09-18T01:18:52;99803.53;;;20.95;75.54
48015;BME280;33780;51.034;7.120;2023-09-18T01:21:20;99792.88;;;20.94;75.67
48015;BME280;33780;51.034;7.120;2023-09-18T01:23:46;99789.34;;;20.93;75.74
48015;BME280;33780;51.034;7.120;2023-09-18T01:26:11;99793.50;;;20.96;75.51
48015;BME280;33780;51.034;7.120;2023-09-18T01:28:36;99786.38;;;20.95;75.69
48015;BME280;33780;51.034;7.120;2023-09-18T01:31:02;99782.84;;;20.94;75.64
48015;BME280;33780;51.034;7.120;2023-09-18T01:33:28;99789.09;;;20.95;75.77
48015;BME280;33780;51.034;7.120;2023-09-18T01:35:55;99771.34;;;20.92;75.89
48015;BME280;33780;51.034;7.120;2023-09-18T01:38:23;99773.22;;;20.92;75.70
48015;BME280;33780;51.034;7.120;2023-09-18T01:40:49;99773.22;;;20.92;75.65
48015;BME280;33780;51.034;7.120;2023-09-18T01:43:14;99771.56;;;20.91;75.83
48015;BME280;33780;51.034;7.120;2023-09-18T01:45:40;99769.91;;;20.90;75.58
48015;BME280;33780;51.034;7.120;2023-09-18T01:48:06;99763.63;;;20.89;75.67
48015;BME280;33780;51.034;7.120;2023-09-18T01:50:31;99765.53;;;20.89;75.92
48015;BME280;33780;51.034;7.120;2023-09-18T01:52:58;99749.19;;;20.89;75.82
48015;BME280;33780;51.034;7.120;2023-09-18T01:55:24;99747.31;;;20.89;75.63
48015;BME280;33780;51.034;7.120;2023-09-18T01:57:49;99749.19;;;20.89;75.86
48015;BME280;33780;51.034;7.120;2023-09-18T02:00:15;99743.75;;;20.89;75.73
48015;BME280;33780;51.034;7.120;2023-09-18T02:02:40;99750.03;;;20.89;75.85
48015;BME280;33780;51.034;7.120;2023-09-18T02:05:06;99736.44;;;20.89;75.80
48015;BME280;33780;51.034;7.120;2023-09-18T02:07:31;99737.03;;;20.91;75.75
48015;BME280;33780;51.034;7.120;2023-09-18T02:09:57;99737.88;;;20.92;75.53
48015;BME280;33780;51.034;7.120;2023-09-18T02:12:22;99729.47;;;20.93;75.81
48015;BME280;33780;51.034;7.120;2023-09-18T02:14:48;99725.94;;;20.93;75.60
48015;BME280;33780;51.034;7.120;2023-09-18T02:17:13;99721.94;;;20.95;75.79
48015;BME280;33780;51.034;7.120;2023-09-18T02:19:38;99716.03;;;20.98;76.05
48015;BME280;33780;51.034;7.120;2023-09-18T02:22:04;99710.19;;;21.01;75.53
48015;BME280;33780;51.034;7.120;2023-09-18T02:24:29;99735.03;;;21.05;75.48
48015;BME280;33780;51.034;7.120;2023-09-18T02:26:54;99731.63;;;21.09;75.04
48015;BME280;33780;51.034;7.120;2023-09-18T02:29:19;99736.41;;;21.14;74.85
48015;BME280;33780;51.034;7.120;2023-09-18T02:31:45;99734.69;;;21.20;74.92
48015;BME280;33780;51.034;7.120;2023-09-18T02:34:11;99741.75;;;21.27;74.79
48015;BME280;33780;51.034;7.120;2023-09-18T02:36:36;99731.84;;;21.33;74.67
48015;BME280;33780;51.034;7.120;2023-09-18T02:39:01;99730.94;;;21.39;74.08
48015;BME280;33780;51.034;7.120;2023-09-18T02:41:27;99729.22;;;21.45;73.55
48015;BME280;33780;51.034;7.120;2023-09-18T02:43:53;99708.63;;;21.49;73.87
48015;BME280;33780;51.034;7.120;2023-09-18T02:46:18;99707.94;;;21.53;73.48
48015;BME280;33780;51.034;7.120;2023-09-18T02:48:43;99708.34;;;21.57;73.62
48015;BME280;33780;51.034;7.120;2023-09-18T02:51:08;99703.25;;;21.60;73.57
48015;BME280;33780;51.034;7.120;2023-09-18T02:53:34;99691.91;;;21.63;73.89
48015;BME280;33780;51.034;7.120;2023-09-18T02:55:59;99691.44;;;21.66;73.48
48015;BME280;33780;51.034;7.120;2023-09-18T02:58:25;99685.53;;;21.69;73.65
48015;BME280;33780;51.034;7.120;2023-09-18T03:00:52;99682.56;;;21.71;73.73
48015;BME280;33780;51.034;7.120;2023-09-18T03:03:18;99676.06;;;21.72;73.91
48015;BME280;33780;51.034;7.120;2023-09-18T03:05:44;99659.53;;;21.74;73.65
48015;BME280;33780;51.034;7.120;2023-09-18T03:08:10;99652.19;;;21.74;73.83
48015;BME280;33780;51.034;7.120;2023-09-18T03:10:37;99638.56;;;21.74;74.24
48015;BME280;33780;51.034;7.120;2023-09-18T03:13:04;99630.41;;;21.74;73.90
48015;BME280;33780;51.034;7.120;2023-09-18T03:15:30;99619.50;;;21.74;73.91
48015;BME280;33780;51.034;7.120;2023-09-18T03:17:57;99628.75;;;21.73;74.30
48015;BME280;33780;51.034;7.120;2023-09-18T03:20:23;99622.66;;;21.71;74.68
48015;BME280;33780;51.034;7.120;2023-09-18T03:22:50;99619.09;;;21.70;74.74
48015;BME280;33780;51.034;7.120;2023-09-18T03:25:16;99639.25;;;21.69;75.19
48015;BME280;33780;51.034;7.120;2023-09-18T03:27:41;99636.97;;;21.66;75.44
48015;BME280;33780;51.034;7.120;2023-09-18T03:30:07;99640.53;;;21.67;75.41
48015;BME280;33780;51.034;7.120;2023-09-18T03:32:32;99635.31;;;21.65;75.76
48015;BME280;33780;51.034;7.120;2023-09-18T03:34:57;99643.13;;;21.62;75.88
48015;BME280;33780;51.034;7.120;2023-09-18T03:37:23;99657.81;;;21.61;76.01
48015;BME280;33780;51.034;7.120;2023-09-18T03:39:48;99669.75;;;21.60;76.33
48015;BME280;33780;51.034;7.120;2023-09-18T03:42:13;99689.06;;;21.58;76.67
48015;BME280;33780;51.034;7.120;2023-09-18T03:44:38;99670.44;;;21.55;76.56
48015;BME280;33780;51.034;7.120;2023-09-18T03:47:04;99676.94;;;21.54;76.46
48015;BME280;33780;51.034;7.120;2023-09-18T03:49:30;99688.88;;;21.53;76.37
48015;BME280;33780;51.034;7.120;2023-09-18T03:51:55;99674.44;;;21.53;76.51
48015;BME280;33780;51.034;7.120;2023-09-18T03:54:20;99671.72;;;21.53;76.37
48015;BME280;33780;51.034;7.120;2023-09-18T03:56:45;99669.00;;;21.53;76.89
48015;BME280;33780;51.034;7.120;2023-09-18T03:59:12;99651.81;;;21.52;76.38
48015;BME280;33780;51.034;7.120;2023-09-18T04:01:37;99658.34;;;21.51;76.46
48015;BME280;33780;51.034;7.120;2023-09-18T04:04:02;99655.59;;;21.51;76.74
48015;BME280;33780;51.034;7.120;2023-09-18T04:06:36;99651.22;;;21.50;76.81
48015;BME280;33780;51.034;7.120;2023-09-18T04:09:01;99646.84;;;21.49;77.01
48015;BME280;33780;51.034;7.120;2023-09-18T04:11:27;99636.19;;;21.48;76.97
48015;BME280;33780;51.034;7.120;2023-09-18T04:13:52;99647.31;;;21.46;77.26
48015;BME280;33780;51.034;7.120;2023-09-18T04:16:17;99661.97;;;21.45;77.23
48015;BME280;33780;51.034;7.120;2023-09-18T04:18:43;99661.97;;;21.45;77.37
48015;BME280;33780;51.034;7.120;2023-09-18T04:21:08;99658.66;;;21.43;77.21
48015;BME280;33780;51.034;7.120;2023-09-18T04:23:35;99657.81;;;21.42;77.16
48015;BME280;33780;51.034;7.120;2023-09-18T04:26:02;99646.94;;;21.42;77.58
48015;BME280;33780;51.034;7.120;2023-09-18T04:28:27;99637.34;;;21.40;77.70
48015;BME280;33780;51.034;7.120;2023-09-18T04:30:52;99650.34;;;21.38;77.38
48015;BME280;33780;51.034;7.120;2023-09-18T04:33:18;99649.72;;;21.36;77.62
48015;BME280;33780;51.034;7.120;2023-09-18T04:35:43;99652.69;;;21.34;77.73
48015;BME280;33780;51.034;7.120;2023-09-18T04:38:09;99663.78;;;21.33;77.51
48015;BME280;33780;51.034;7.120;2023-09-18T04:40:36;99658.56;;;21.31;77.34
48015;BME280;33780;51.034;7.120;2023-09-18T04:43:01;99649.59;;;21.31;77.65
48015;BME280;33780;51.034;7.120;2023-09-18T04:45:30;99647.91;;;21.30;77.56
48015;BME280;33780;51.034;7.120;2023-09-18T04:47:56;99653.13;;;21.31;77.64
48015;BME280;33780;51.034;7.120;2023-09-18T04:50:21;99633.25;;;21.31;77.41
48015;BME280;33780;51.034;7.120;2023-09-18T04:52:47;99619.03;;;21.29;77.72
48015;BME280;33780;51.034;7.120;2023-09-18T04:55:13;99603.78;;;21.28;77.34
48015;BME280;33780;51.034;7.120;2023-09-18T04:57:38;99616.56;;;21.27;77.63
48015;BME280;33780;51.034;7.120;2023-09-18T05:00:04;99616.56;;;21.27;77.46
48015;BME280;33780;51.034;7.120;2023-09-18T05:02:34;99626.84;;;21.25;77.12
48015;BME280;33780;51.034;7.120;2023-09-18T05:05:00;99635.00;;;21.25;77.33
48015;BME280;33780;51.034;7.120;2023-09-18T05:07:25;99636.91;;;21.25;77.51
48015;BME280;33780;51.034;7.120;2023-09-18T05:09:51;99636.91;;;21.25;77.56
48015;BME280;33780;51.034;7.120;2023-09-18T05:12:16;99645.06;;;21.25;77.61
48015;BME280;33780;51.034;7.120;2023-09-18T05:14:43;99614.28;;;21.24;77.43
48015;BME280;33780;51.034;7.120;2023-09-18T05:17:14;99618.03;;;21.23;77.57
48015;BME280;33780;51.034;7.120;2023-09-18T05:19:40;99633.53;;;21.23;77.57
48015;BME280;33780;51.034;7.120;2023-09-18T05:22:05;99643.59;;;21.22;77.40
48015;BME280;33780;51.034;7.120;2023-09-18T05:24:31;99638.38;;;21.21;77.61
48015;BME280;33780;51.034;7.120;2023-09-18T05:26:57;99644.66;;;21.21;77.14
48015;BME280;33780;51.034;7.120;2023-09-18T05:29:22;99652.81;;;21.21;77.53
48015;BME280;33780;51.034;7.120;2023-09-18T05:31:47;99657.44;;;21.21;77.45
48015;BME280;33780;51.034;7.120;2023-09-18T05:34:12;99669.16;;;21.21;77.37
48015;BME280;33780;51.034;7.120;2023-09-18T05:36:39;99642.75;;;21.22;77.12
48015;BME280;33780;51.034;7.120;2023-09-18T05:39:05;99642.75;;;21.22;77.17
48015;BME280;33780;51.034;7.120;2023-09-18T05:41:35;99662.66;;;21.22;77.48
48015;BME280;33780;51.034;7.120;2023-09-18T05:44:00;99667.25;;;21.22;76.78
48015;BME280;33780;51.034;7.120;2023-09-18T05:46:29;99674.59;;;21.21;77.14
48015;BME280;33780;51.034;7.120;2023-09-18T05:48:54;99680.03;;;21.21;77.17
48015;BME280;33780;51.034;7.120;2023-09-18T05:51:21;99680.03;;;21.21;76.99
48015;BME280;33780;51.034;7.120;2023-09-18T05:53:47;99691.75;;;21.22;76.81
48015;BME280;33780;51.034;7.120;2023-09-18T05:56:12;99700.75;;;21.22;76.87
48015;BME280;33780;51.034;7.120;2023-09-18T05:58:39;99680.63;;;21.23;76.56
48015;BME280;33780;51.034;7.120;2023-09-18T06:01:05;99675.00;;;21.25;76.78
48015;BME280;33780;51.034;7.120;2023-09-18T06:03:30;99685.88;;;21.25;76.50
48015;BME280;33780;51.034;7.120;2023-09-18T06:06:01;99690.03;;;21.27;76.75
48015;BME280;33780;51.034;7.120;2023-09-18T06:08:26;99691.69;;;21.28;76.67
48015;BME280;33780;51.034;7.120;2023-09-18T06:10:51;99702.59;;;21.28;76.55
48015;BME280;33780;51.034;7.120;2023-09-18T06:13:17;99687.91;;;21.29;76.77
48015;BME280;33780;51.034;7.120;2023-09-18T06:15:42;99683.31;;;21.30;76.47
48015;BME280;33780;51.034;7.120;2023-09-18T06:18:07;99692.06;;;21.32;76.40
48015;BME280;33780;51.034;7.120;2023-09-18T06:20:33;99683.91;;;21.32;76.27
48015;BME280;33780;51.034;7.120;2023-09-18T06:22:58;99701.91;;;21.33;76.28
48015;BME280;33780;51.034;7.120;2023-09-18T06:25:24;99709.00;;;21.34;76.13
48015;BME280;33780;51.034;7.120;2023-09-18T06:27:49;99699.78;;;21.35;76.08
48015;BME280;33780;51.034;7.120;2023-09-18T06:30:14;99683.25;;;21.36;76.06
48015;BME280;33780;51.034;7.120;2023-09-18T06:32:40;99673.19;;;21.37;75.84
48015;BME280;33780;51.034;7.120;2023-09-18T06:35:05;99693.91;;;21.38;76.03
48015;BME280;33780;51.034;7.120;2023-09-18T06:37:31;99694.50;;;21.40;75.84
48015;BME280;33780;51.034;7.120;2023-09-18T06:39:56;99687.78;;;21.42;75.52
48015;BME280;33780;51.034;7.120;2023-09-18T06:42:22;99692.16;;;21.44;75.57
48015;BME280;33780;51.034;7.120;2023-09-18T06:44:47;99699.03;;;21.46;76.00
48015;BME280;33780;51.034;7.120;2023-09-18T06:47:12;99708.63;;;21.49;75.74
48015;BME280;33780;51.034;7.120;2023-09-18T06:49:40;99710.28;;;21.50;75.75
48015;BME280;33780;51.034;7.120;2023-09-18T06:52:07;99700.84;;;21.52;75.58
48015;BME280;33780;51.034;7.120;2023-09-18T06:54:32;99685.31;;;21.53;75.53
48015;BME280;33780;51.034;7.120;2023-09-18T06:56:57;99682.19;;;21.56;75.60
48015;BME280;33780;51.034;7.120;2023-09-18T06:59:23;99688.00;;;21.59;75.22
48015;BME280;33780;51.034;7.120;2023-09-18T07:01:48;99696.75;;;21.61;75.24
48015;BME280;33780;51.034;7.120;2023-09-18T07:04:13;99692.97;;;21.62;75.32
48015;BME280;33780;51.034;7.120;2023-09-18T07:06:38;99712.41;;;21.66;74.93
48015;BME280;33780;51.034;7.120;2023-09-18T07:09:04;99713.00;;;21.68;74.90
48015;BME280;33780;51.034;7.120;2023-09-18T07:11:31;99703.53;;;21.70;74.56
48015;BME280;33780;51.034;7.120;2023-09-18T07:13:57;99697.66;;;21.74;74.77
48015;BME280;33780;51.034;7.120;2023-09-18T07:16:22;99699.91;;;21.77;74.80
48015;BME280;33780;51.034;7.120;2023-09-18T07:18:47;99701.13;;;21.81;74.64
48015;BME280;33780;51.034;7.120;2023-09-18T07:21:13;99719.72;;;21.84;74.67
48015;BME280;33780;51.034;7.120;2023-09-18T07:23:40;99725.53;;;21.87;74.71
48015;BME280;33780;51.034;7.120;2023-09-18T07:26:05;99729.69;;;21.90;73.93
48015;BME280;33780;51.034;7.120;2023-09-18T07:28:31;99732.22;;;21.91;73.92
48015;BME280;33780;51.034;7.120;2023-09-18T07:30:56;99739.91;;;21.94;74.11
48015;BME280;33780;51.034;7.120;2023-09-18T07:33:22;99746.78;;;21.97;74.00
48015;BME280;33780;51.034;7.120;2023-09-18T07:35:48;99737.31;;;21.99;73.86
48015;BME280;33780;51.034;7.120;2023-09-18T07:38:14;99736.03;;;22.02;73.78
48015;BME280;33780;51.034;7.120;2023-09-18T07:40:39;99742.31;;;22.02;73.82
48015;BME280;33780;51.034;7.120;2023-09-18T07:43:05;99750.06;;;22.06;73.58
48015;BME280;33780;51.034;7.120;2023-09-18T07:45:30;99748.16;;;22.06;73.47
48015;BME280;33780;51.034;7.120;2023-09-18T07:47:55;99761.78;;;22.06;73.33
48015;BME280;33780;51.034;7.120;2023-09-18T07:50:41;99761.34;;;22.09;73.23
48015;BME280;33780;51.034;7.120;2023-09-18T07:53:08;99775.56;;;22.11;72.73
48015;BME280;33780;51.034;7.120;2023-09-18T07:55:34;99761.72;;;22.13;72.84
48015;BME280;33780;51.034;7.120;2023-09-18T07:57:59;99746.19;;;22.13;73.29
48015;BME280;33780;51.034;7.120;2023-09-18T08:00:24;99772.38;;;22.14;72.98
48015;BME280;33780;51.034;7.120;2023-09-18T08:02:53;99773.22;;;22.15;72.70
48015;BME280;33780;51.034;7.120;2023-09-18T08:05:21;99760.66;;;22.14;72.54
48015;BME280;33780;51.034;7.120;2023-09-18T08:07:46;99772.38;;;22.14;72.63
48015;BME280;33780;51.034;7.120;2023-09-18T08:10:13;99772.16;;;22.16;72.71
48015;BME280;33780;51.034;7.120;2023-09-18T08:12:38;99772.38;;;22.14;72.11
48015;BME280;33780;51.034;7.120;2023-09-18T08:15:10;99788.72;;;22.14;72.51
48015;BME280;33780;51.034;7.120;2023-09-18T08:17:38;99793.34;;;22.14;72.34
48015;BME280;33780;51.034;7.120;2023-09-18T08:20:05;99790.84;;;22.12;71.94
48015;BME280;33780;51.034;7.120;2023-09-18T08:22:37;99792.53;;;22.13;72.02
48015;BME280;33780;51.034;7.120;2023-09-18T08:25:02;99790.41;;;22.15;72.14
48015;BME280;33780;51.034;7.120;2023-09-18T08:27:28;99779.25;;;22.17;72.22
48015;BME280;33780;51.034;7.120;2023-09-18T08:29:54;99761.84;;;22.18;71.67
48015;BME280;33780;51.034;7.120;2023-09-18T08:32:19;99773.56;;;22.18;71.96
48015;BME280;33780;51.034;7.120;2023-09-18T08:34:44;99794.09;;;22.21;71.76
48015;BME280;33780;51.034;7.120;2023-09-18T08:37:10;99802.63;;;22.24;71.64
48015;BME280;33780;51.034;7.120;2023-09-18T08:39:35;99801.34;;;22.27;71.71
48015;BME280;33780;51.034;7.120;2023-09-18T08:42:04;99791.28;;;22.27;72.07
48015;BME280;33780;51.034;7.120;2023-09-18T08:44:30;99790.00;;;22.30;71.87
48015;BME280;33780;51.034;7.120;2023-09-18T08:46:55;99795.81;;;22.34;71.85
48015;BME280;33780;51.034;7.120;2023-09-18T08:49:23;99794.50;;;22.36;71.74
48015;BME280;33780;51.034;7.120;2023-09-18T08:51:49;99803.06;;;22.40;71.82
48015;BME280;33780;51.034;7.120;2023-09-18T08:54:15;99800.91;;;22.42;71.22
48015;BME280;33780;51.034;7.120;2023-09-18T08:56:41;99801.53;;;22.44;71.33
48015;BME280;33780;51.034;7.120;2023-09-18T08:59:06;99795.03;;;22.45;71.67
48015;BME280;33780;51.034;7.120;2023-09-18T09:03:57;99791.38;;;22.51;71.25
48015;BME280;33780;51.034;7.120;2023-09-18T09:06:22;99791.50;;;22.56;71.34
48015;BME280;33780;51.034;7.120;2023-09-18T09:08:49;99795.41;;;22.60;71.38
48015;BME280;33780;51.034;7.120;2023-09-18T09:11:14;99802.91;;;22.65;70.89
48015;BME280;33780;51.034;7.120;2023-09-18T09:13:40;99798.66;;;22.69;70.44
48015;BME280;33780;51.034;7.120;2023-09-18T09:16:05;99800.31;;;22.70;70.13
48015;BME280;33780;51.034;7.120;2023-09-18T09:18:30;99804.69;;;22.71;70.08
48015;BME280;33780;51.034;7.120;2023-09-18T09:21:01;99802.56;;;22.73;69.57
48015;BME280;33780;51.034;7.120;2023-09-18T09:23:28;99804.22;;;22.74;69.66
48015;BME280;33780;51.034;7.120;2023-09-18T09:25:56;99811.34;;;22.75;69.49
48015;BME280;33780;51.034;7.120;2023-09-18T09:28:36;99812.66;;;22.72;69.75
48015;BME280;33780;51.034;7.120;2023-09-18T09:31:02;99810.50;;;22.74;69.10
48015;BME280;33780;51.034;7.120;2023-09-18T09:33:29;99792.84;;;22.77;68.95
48015;BME280;33780;51.034;7.120;2023-09-18T09:35:55;99803.28;;;22.80;69.13
48015;BME280;33780;51.034;7.120;2023-09-18T09:38:28;99807.72;;;22.81;68.83
48015;BME280;33780;51.034;7.120;2023-09-18T09:40:54;99811.25;;;22.81;68.45
48015;BME280;33780;51.034;7.120;2023-09-18T09:43:19;99798.25;;;22.83;68.95
48015;BME280;33780;51.034;7.120;2023-09-18T09:45:47;99795.03;;;22.86;69.12
48015;BME280;33780;51.034;7.120;2023-09-18T09:48:13;99804.66;;;22.89;68.58
48015;BME280;33780;51.034;7.120;2023-09-18T09:50:47;99795.16;;;22.91;68.56
48015;BME280;33780;51.034;7.120;2023-09-18T09:53:14;99799.31;;;22.94;68.74
48015;BME280;33780;51.034;7.120;2023-09-18T09:55:40;99793.63;;;22.96;68.24
48015;BME280;33780;51.034;7.120;2023-09-18T09:58:07;99798.25;;;22.95;67.87
48015;BME280;33780;51.034;7.120;2023-09-18T10:00:51;99793.19;;;22.99;68.10
48015;BME280;33780;51.034;7.120;2023-09-18T10:03:20;99800.06;;;23.01;67.63
48015;BME280;33780;51.034;7.120;2023-09-18T10:05:51;99783.44;;;23.03;66.67
48015;BME280;33780;51.034;7.120;2023-09-18T10:08:25;99794.72;;;23.06;66.89
48015;BME280;33780;51.034;7.120;2023-09-18T10:10:55;99801.84;;;23.07;66.96
48015;BME280;33780;51.034;7.120;2023-09-18T10:13:32;99791.50;;;23.09;66.98
48015;BME280;33780;51.034;7.120;2023-09-18T10:15:59;99793.75;;;23.12;66.70
48015;BME280;33780;51.034;7.120;2023-09-18T10:19:18;99786.53;;;23.18;66.81
48015;BME280;33780;51.034;7.120;2023-09-18T10:22:31;99783.56;;;23.19;67.12
48015;BME280;33780;51.034;7.120;2023-09-18T10:25:14;99785.81;;;23.23;66.73
48015;BME280;33780;51.034;7.120;2023-09-18T10:27:46;99781.78;;;23.25;67.28
48015;BME280;33780;51.034;7.120;2023-09-18T10:30:14;99794.97;;;23.28;66.69
48015;BME280;33780;51.034;7.120;2023-09-18T10:32:43;99795.53;;;23.30;67.10
48015;BME280;33780;51.034;7.120;2023-09-18T10:35:10;99804.72;;;23.36;67.16
48015;BME280;33780;51.034;7.120;2023-09-18T10:37:37;99805.31;;;23.38;66.44
48015;BME280;33780;51.034;7.120;2023-09-18T10:40:05;99802.91;;;23.41;66.04
48015;BME280;33780;51.034;7.120;2023-09-18T10:42:41;99806.47;;;23.42;66.28
48015;BME280;33780;51.034;7.120;2023-09-18T10:45:09;99808.72;;;23.45;66.01
48015;BME280;33780;51.034;7.120;2023-09-18T10:47:42;99806.09;;;23.50;66.40
48015;BME280;33780;51.034;7.120;2023-09-18T10:50:10;99810.63;;;23.56;65.01
48015;BME280;33780;51.034;7.120;2023-09-18T10:52:36;99805.56;;;23.60;65.38
48015;BME280;33780;51.034;7.120;2023-09-18T10:59:16;99812.78;;;23.66;63.38
48015;BME280;33780;51.034;7.120;2023-09-18T11:01:35;99807.31;;;23.66;63.16
48015;BME280;33780;51.034;7.120;2023-09-18T11:07:08;99810.28;;;23.64;63.28
48015;BME280;33780;51.034;7.120;2023-09-18T11:09:53;99779.66;;;23.62;62.51
48015;BME280;33780;51.034;7.120;2023-09-18T11:12:44;99784.63;;;23.65;62.39
48015;BME280;33780;51.034;7.120;2023-09-18T11:15:33;99779.28;;;23.70;63.12
48015;BME280;33780;51.034;7.120;2023-09-18T11:21:15;99792.31;;;23.80;62.21
48015;BME280;33780;51.034;7.120;2023-09-18T11:23:42;99786.97;;;23.85;62.61
48015;BME280;33780;51.034;7.120;2023-09-18T11:26:11;99787.09;;;23.90;62.12
48015;BME280;33780;51.034;7.120;2023-09-18T11:28:37;99784.22;;;23.97;62.61
48015;BME280;33780;51.034;7.120;2023-09-18T11:31:03;99773.94;;;24.04;61.54
48015;BME280;33780;51.034;7.120;2023-09-18T11:33:30;99781.78;;;24.12;61.91
48015;BME280;33780;51.034;7.120;2023-09-18T11:35:56;99788.28;;;24.23;60.79
48015;BME280;33780;51.034;7.120;2023-09-18T11:38:32;99790.91;;;24.29;60.57
48015;BME280;33780;51.034;7.120;2023-09-18T11:40:59;99788.00;;;24.36;60.50
48015;BME280;33780;51.034;7.120;2023-09-18T11:43:27;99784.19;;;24.37;60.23
48015;BME280;33780;51.034;7.120;2023-09-18T11:48:28;99780.16;;;24.39;59.43
48015;BME280;33780;51.034;7.120;2023-09-18T11:50:56;99780.38;;;24.38;58.95
48015;BME280;33780;51.034;7.120;2023-09-18T11:53:23;99764.47;;;24.35;58.19
48015;BME280;33780;51.034;7.120;2023-09-18T11:55:49;99762.78;;;24.46;59.03
48015;BME280;33780;51.034;7.120;2023-09-18T11:58:15;99769.66;;;24.48;58.75
48015;BME280;33780;51.034;7.120;2023-09-18T12:00:41;99766.25;;;24.58;58.23
48015;BME280;33780;51.034;7.120;2023-09-18T12:03:17;99753.00;;;24.66;56.57
48015;BME280;33780;51.034;7.120;2023-09-18T12:05:45;99756.66;;;24.72;57.53
48015;BME280;33780;51.034;7.120;2023-09-18T12:08:13;99750.78;;;24.80;57.83
48015;BME280;33780;51.034;7.120;2023-09-18T12:10:39;99754.44;;;24.86;56.27
48015;BME280;33780;51.034;7.120;2023-09-18T12:13:08;99743.88;;;24.94;55.56
48015;BME280;33780;51.034;7.120;2023-09-18T12:15:33;99741.28;;;24.99;54.77
48015;BME280;33780;51.034;7.120;2023-09-18T12:18:05;99730.06;;;25.01;55.88
48015;BME280;33780;51.034;7.120;2023-09-18T12:20:31;99732.03;;;25.06;55.10
48015;BME280;33780;51.034;7.120;2023-09-18T12:22:59;99735.28;;;25.03;55.46
48015;BME280;33780;51.034;7.120;2023-09-18T12:25:33;99727.72;;;25.10;55.83
48015;BME280;33780;51.034;7.120;2023-09-18T12:27:58;99731.97;;;25.17;54.51
48015;BME280;33780;51.034;7.120;2023-09-18T12:30:25;99734.75;;;25.22;54.52
48015;BME280;33780;51.034;7.120;2023-09-18T12:32:51;99730.75;;;25.30;54.71
48015;BME280;33780;51.034;7.120;2023-09-18T12:35:17;99726.09;;;25.30;53.21
48015;BME280;33780;51.034;7.120;2023-09-18T12:37:49;99721.28;;;25.38;51.58
48015;BME280;33780;51.034;7.120;2023-09-18T12:40:35;99713.44;;;25.46;51.08
48015;BME280;33780;51.034;7.120;2023-09-18T12:43:02;99723.91;;;25.49;51.92
48015;BME280;33780;51.034;7.120;2023-09-18T12:45:28;99719.59;;;25.53;52.93
48015;BME280;33780;51.034;7.120;2023-09-18T12:47:55;99708.16;;;25.61;52.01
48015;BME280;33780;51.034;7.120;2023-09-18T12:50:22;99715.31;;;25.63;52.01
48015;BME280;33780;51.034;7.120;2023-09-18T12:52:47;99721.63;;;25.63;51.21
48015;BME280;33780;51.034;7.120;2023-09-18T12:55:25;99713.97;;;25.65;50.47
48015;BME280;33780;51.034;7.120;2023-09-18T12:57:53;99719.38;;;25.60;52.01
48015;BME280;33780;51.034;7.120;2023-09-18T13:00:19;99722.06;;;25.55;52.38
48015;BME280;33780;51.034;7.120;2023-09-18T13:02:47;99723.47;;;25.57;52.14
48015;BME280;33780;51.034;7.120;2023-09-18T13:05:19;99714.22;;;25.64;51.10
48015;BME280;33780;51.034;7.120;2023-09-18T13:07:44;99711.59;;;25.69;50.55
48015;BME280;33780;51.034;7.120;2023-09-18T13:10:10;99724.78;;;25.72;50.63
48015;BME280;33780;51.034;7.120;2023-09-18T13:15:32;99714.44;;;25.79;49.97
48015;BME280;33780;51.034;7.120;2023-09-18T13:18:09;99702.69;;;25.83;49.35